Marton Grove, United Kingdom
Current Conditions -  °F | °C
As of 9:50 PM on Friday 24 Oct 2014 (Local Time) from EGNV Reporting Station
Clear Clear  
Wind Chill: 45°   Ceiling: Unl
Heat Index: 48°   Visibility: 6mi
Dew Point: 41°   Wind: 7mph
Humidity: 76%   Direction: 200°SSW
Pressure: 29.85"   Gusts: NA
Location:  54.52°N, 1.17°W
Report Text: EGNV 242050Z 20006KT CAVOK 09/05 Q1011
Loading
Personal Weather Stations






























Interactive Weather Map
Tropical Storm Tracking
New forecast layout! Learn more

10-Day Weather Forecast

Advertisements
Track Severe Weather on mobile